createdAt,value
2022-07-25T00:01:50.345Z,100209.91
2022-07-25T00:04:18.760Z,100201.50
2022-07-25T00:06:46.714Z,100206.00
2022-07-25T00:09:15.078Z,100201.50
2022-07-25T00:11:42.381Z,100198.31
2022-07-25T00:14:09.996Z,100191.66
2022-07-25T00:16:37.504Z,100202.81
2022-07-25T00:19:05.171Z,100199.94
2022-07-25T00:21:32.782Z,100189.66
2022-07-25T00:23:59.870Z,100196.28
2022-07-25T00:26:27.176Z,100194.19
2022-07-25T00:28:54.305Z,100187.31
2022-07-25T00:31:21.387Z,100183.91
2022-07-25T00:33:48.667Z,100183.91
2022-07-25T00:36:15.660Z,100183.91
2022-07-25T00:38:42.622Z,100173.03
2022-07-25T00:41:11.134Z,100179.38
2022-07-25T00:43:38.291Z,100178.63
2022-07-25T00:46:05.440Z,100183.91
2022-07-25T00:48:32.851Z,100179.94
2022-07-25T00:51:00.398Z,100178.38
2022-07-25T00:53:27.354Z,100176.22
2022-07-25T00:55:56.678Z,100176.22
2022-07-25T00:58:23.752Z,100176.78
2022-07-25T01:00:50.668Z,100178.91
2022-07-25T01:03:18.339Z,100181.34
2022-07-25T01:05:48.017Z,100172.38
2022-07-25T01:08:20.504Z,100179.03
2022-07-25T01:10:48.581Z,100174.31
2022-07-25T01:13:15.976Z,100167.44
2022-07-25T01:15:44.084Z,100162.69
2022-07-25T01:18:11.176Z,100160.56
2022-07-25T01:20:38.185Z,100160.03
2022-07-25T01:23:05.493Z,100161.09
2022-07-25T01:25:32.474Z,100156.09
2022-07-25T01:27:59.452Z,100156.91
2022-07-25T01:30:26.946Z,100163.25
2022-07-25T01:32:54.262Z,100160.59
2022-07-25T01:35:21.404Z,100159.03
2022-07-25T01:37:48.775Z,100144.84
2022-07-25T01:40:16.149Z,100150.63
2022-07-25T01:42:43.733Z,100161.19
2022-07-25T01:45:12.169Z,100149.03
2022-07-25T01:47:39.492Z,100158.06
2022-07-25T01:50:07.013Z,100152.25
2022-07-25T01:52:34.435Z,100139.59
2022-07-25T01:55:01.400Z,100140.88
2022-07-25T01:57:31.275Z,100137.44
2022-07-25T01:59:59.258Z,100139.03
2022-07-25T02:02:26.588Z,100144.34
2022-07-25T02:04:53.673Z,100137.75
2022-07-25T02:07:21.102Z,100139.63
2022-07-25T02:09:49.339Z,100135.97
2022-07-25T02:12:18.143Z,100136.50
2022-07-25T02:14:45.534Z,100138.66
2022-07-25T02:17:12.550Z,100137.84
2022-07-25T02:19:39.483Z,100138.91
2022-07-25T02:22:06.958Z,100136.03
2022-07-25T02:24:33.933Z,100129.19
2022-07-25T02:27:01.040Z,100131.34
2022-07-25T02:29:28.271Z,100131.03
2022-07-25T02:31:55.222Z,100121.78
2022-07-25T02:34:22.266Z,100127.38
2022-07-25T02:36:49.733Z,100120.78
2022-07-25T02:39:16.819Z,100125.56
2022-07-25T02:41:44.726Z,100126.13
2022-07-25T02:44:12.465Z,100125.56
2022-07-25T02:46:39.518Z,100129.84
2022-07-25T02:49:06.639Z,100138.34
2022-07-25T02:51:33.908Z,100133.59
2022-07-25T02:54:01.048Z,100134.16
2022-07-25T02:56:30.264Z,100139.22
2022-07-25T02:58:59.470Z,100133.13
2022-07-25T03:01:27.112Z,100134.50
2022-07-25T03:03:54.183Z,100144.53
2022-07-25T03:06:21.661Z,100142.19
2022-07-25T03:08:48.679Z,100145.34
2022-07-25T03:11:16.911Z,100149.31
2022-07-25T03:13:44.159Z,100147.50
2022-07-25T03:16:12.333Z,100144.38
2022-07-25T03:18:39.462Z,100144.38
2022-07-25T03:21:07.182Z,100149.69
2022-07-25T03:23:34.391Z,100148.13
2022-07-25T03:26:01.287Z,100150.53
2022-07-25T03:28:28.665Z,100152.91
2022-07-25T03:30:55.717Z,100159.00
2022-07-25T03:33:22.768Z,100158.22
2022-07-25T03:35:49.992Z,100159.06
2022-07-25T03:38:16.944Z,100162.50
2022-07-25T03:40:44.022Z,100160.91
2022-07-25T03:43:11.346Z,100175.16
2022-07-25T03:45:38.352Z,100165.63
2022-07-25T03:48:05.693Z,100166.72
2022-07-25T03:50:34.134Z,100161.44
2022-07-25T03:53:01.131Z,100168.34
2022-07-25T03:55:28.458Z,100160.66
2022-07-25T03:57:55.722Z,100160.44
2022-07-25T04:00:22.979Z,100155.44
2022-07-25T04:02:50.170Z,100159.38
2022-07-25T04:05:17.511Z,100154.91
2022-07-25T04:07:44.659Z,100154.66
2022-07-25T04:10:14.398Z,100144.63
2022-07-25T04:12:45.700Z,100154.94
2022-07-25T04:15:12.825Z,100153.06
2022-07-25T04:17:39.958Z,100148.31
2022-07-25T04:20:08.626Z,100144.13
2022-07-25T04:22:35.839Z,100144.91
2022-07-25T04:25:02.913Z,100142.28
2022-07-25T04:27:30.431Z,100145.19
2022-07-25T04:30:01.226Z,100142.00
2022-07-25T04:32:28.911Z,100141.50
2022-07-25T04:34:55.995Z,100144.63
2022-07-25T04:37:23.580Z,100141.50
2022-07-25T04:39:50.479Z,100139.63
2022-07-25T04:42:17.844Z,100143.06
2022-07-25T04:44:45.059Z,100138.34
2022-07-25T04:47:12.023Z,100140.94
2022-07-25T04:49:39.021Z,100136.19
2022-07-25T04:52:06.379Z,100137.25
2022-07-25T04:54:33.314Z,100138.00
2022-07-25T04:57:01.492Z,100140.66
2022-07-25T04:59:28.733Z,100144.06
2022-07-25T05:01:55.729Z,100140.84
2022-07-25T05:04:22.759Z,100130.78
2022-07-25T05:06:50.093Z,100142.34
2022-07-25T05:09:17.023Z,100146.78
2022-07-25T05:11:48.655Z,100136.34
2022-07-25T05:14:17.903Z,100141.63
2022-07-25T05:16:47.878Z,100133.63
2022-07-25T05:19:14.878Z,100138.88
2022-07-25T05:21:42.140Z,100132.25
2022-07-25T05:24:10.751Z,100142.22
2022-07-25T05:26:37.719Z,100139.22
2022-07-25T05:29:05.086Z,100135.19
2022-07-25T05:31:32.078Z,100133.56
2022-07-25T05:33:59.053Z,100137.84
2022-07-25T05:36:26.384Z,100139.47
2022-07-25T05:38:54.224Z,100135.88
2022-07-25T05:41:21.491Z,100139.03
2022-07-25T05:43:48.973Z,100136.38
2022-07-25T05:46:16.323Z,100130.00
2022-07-25T05:48:44.422Z,100148.06
2022-07-25T05:51:12.627Z,100146.06
2022-07-25T05:53:39.850Z,100150.72
2022-07-25T05:56:09.013Z,100153.84
2022-07-25T05:58:37.396Z,100155.38
2022-07-25T06:01:04.638Z,100154.13
2022-07-25T06:03:31.727Z,100159.75
2022-07-25T06:05:58.976Z,100161.03
2022-07-25T06:08:28.800Z,100155.41
2022-07-25T06:10:57.781Z,100151.69
2022-07-25T06:13:25.855Z,100153.50
2022-07-25T06:15:55.092Z,100153.53
2022-07-25T06:18:22.605Z,100156.19
2022-07-25T06:20:49.950Z,100155.69
2022-07-25T06:23:17.468Z,100150.22
2022-07-25T06:25:50.034Z,100146.78
2022-07-25T06:28:18.180Z,100154.13
2022-07-25T06:30:46.151Z,100147.91
2022-07-25T06:33:13.857Z,100149.00
2022-07-25T06:35:41.102Z,100137.59
2022-07-25T06:38:07.996Z,100139.34
2022-07-25T06:40:36.391Z,100139.31
2022-07-25T06:43:03.796Z,100137.25
2022-07-25T06:45:30.915Z,100129.84
2022-07-25T06:47:57.862Z,100137.09
2022-07-25T06:50:25.446Z,100134.53
2022-07-25T06:52:54.512Z,100135.94
2022-07-25T06:55:21.837Z,100136.28
2022-07-25T06:57:49.162Z,100127.38
2022-07-25T07:00:16.311Z,100125.50
2022-07-25T07:02:52.104Z,100126.31
2022-07-25T07:05:19.568Z,100127.44
2022-07-25T07:07:47.949Z,100128.22
2022-07-25T07:10:15.642Z,100126.28
2022-07-25T07:12:42.992Z,100128.59
2022-07-25T07:15:10.301Z,100120.09
2022-07-25T07:17:37.335Z,100119.34
2022-07-25T07:20:06.512Z,100116.25
2022-07-25T07:22:42.953Z,100114.66
2022-07-25T07:25:10.530Z,100117.75
2022-07-25T07:27:38.124Z,100113.53
2022-07-25T07:30:05.590Z,100117.03
2022-07-25T07:32:34.067Z,100109.25
2022-07-25T07:35:01.130Z,100101.53
2022-07-25T07:37:35.784Z,100104.53
2022-07-25T07:40:05.821Z,100100.66
2022-07-25T07:42:44.313Z,100100.56
2022-07-25T07:45:24.621Z,100103.66
2022-07-25T07:47:53.480Z,100098.34
2022-07-25T07:50:27.497Z,100096.84
2022-07-25T07:52:56.047Z,100096.50
2022-07-25T07:55:42.230Z,100092.22
2022-07-25T07:58:10.142Z,100087.56
2022-07-25T08:00:39.702Z,100087.59
2022-07-25T08:03:10.041Z,100087.59
2022-07-25T08:05:39.141Z,100076.78
2022-07-25T08:08:08.868Z,100082.25
2022-07-25T08:10:38.664Z,100084.19
2022-07-25T08:13:22.679Z,100082.22
2022-07-25T08:15:52.567Z,100079.91
2022-07-25T08:18:20.325Z,100068.16
2022-07-25T08:20:48.619Z,100070.84
2022-07-25T08:23:15.735Z,100068.94
2022-07-25T08:25:45.178Z,100067.25
2022-07-25T08:28:12.645Z,100061.78
2022-07-25T08:30:41.179Z,100058.38
2022-07-25T08:33:13.285Z,100058.00
2022-07-25T08:35:41.881Z,100049.69
2022-07-25T08:38:11.657Z,100052.25
2022-07-25T08:40:39.009Z,100058.81
2022-07-25T08:43:13.866Z,100044.09
2022-07-25T08:45:46.028Z,100047.25
2022-07-25T08:48:13.184Z,100036.38
2022-07-25T08:50:40.468Z,100041.84
2022-07-25T08:53:32.126Z,100040.34
2022-07-25T08:55:55.057Z,100039.53
2022-07-25T08:58:22.438Z,100042.16
2022-07-25T09:00:49.623Z,100030.75
2022-07-25T09:03:16.728Z,100035.94
2022-07-25T09:05:45.333Z,100033.78
2022-07-25T09:08:14.697Z,100023.00
2022-07-25T09:10:50.244Z,100026.88
2022-07-25T09:13:21.891Z,100028.16
2022-07-25T09:15:53.983Z,100023.78
2022-07-25T09:18:29.740Z,100031.88
2022-07-25T09:21:00.872Z,100024.75
2022-07-25T09:23:32.099Z,100021.28
2022-07-25T09:26:17.735Z,100015.78
2022-07-25T09:28:46.535Z,100016.25
2022-07-25T09:31:14.545Z,100008.44
2022-07-25T09:33:55.378Z,100001.97
2022-07-25T09:36:23.032Z,100008.25
2022-07-25T09:39:01.434Z,100000.59
2022-07-25T09:41:37.038Z,100002.34
2022-07-25T09:44:05.423Z,99998.38
2022-07-25T09:46:35.148Z,99986.25
2022-07-25T09:49:02.274Z,99981.88
2022-07-25T09:51:30.695Z,99981.28
2022-07-25T09:53:57.929Z,99978.34
2022-07-25T09:56:24.883Z,99978.03
2022-07-25T09:58:52.934Z,99968.69
2022-07-25T10:01:29.076Z,99966.69
2022-07-25T10:04:21.007Z,99965.38
2022-07-25T10:07:04.243Z,99957.34
2022-07-25T10:09:32.376Z,99957.88
2022-07-25T10:12:06.398Z,99961.78
2022-07-25T10:14:34.426Z,99953.13
2022-07-25T10:17:02.148Z,99949.13
2022-07-25T10:19:50.798Z,99938.13
2022-07-25T10:22:34.239Z,99945.53
2022-07-25T10:25:19.735Z,99933.69
2022-07-25T10:27:49.141Z,99937.78
2022-07-25T10:30:26.580Z,99923.47
2022-07-25T10:33:00.692Z,99928.28
2022-07-25T10:35:28.626Z,99924.13
2022-07-25T10:37:57.777Z,99917.41
2022-07-25T10:40:35.467Z,99924.00
2022-07-25T10:43:12.672Z,99910.34
2022-07-25T10:45:52.040Z,99911.00
2022-07-25T10:48:25.452Z,99898.22
2022-07-25T10:50:58.344Z,99905.72
2022-07-25T10:53:38.449Z,99907.13
2022-07-25T10:56:15.884Z,99900.22
2022-07-25T10:58:44.184Z,99892.88
2022-07-25T11:01:11.659Z,99885.25
2022-07-25T11:03:39.363Z,99885.41
2022-07-25T11:06:06.818Z,99876.66
2022-07-25T11:08:34.564Z,99878.41
2022-07-25T11:11:02.214Z,99867.03
2022-07-25T11:13:36.233Z,99857.94
2022-07-25T11:16:03.210Z,99862.69
2022-07-25T11:18:41.114Z,99861.09
2022-07-25T11:21:09.449Z,99860.69
2022-07-25T11:23:37.118Z,99863.72
2022-07-25T11:26:12.135Z,99865.38
2022-07-25T11:28:44.249Z,99861.84
2022-07-25T11:31:12.503Z,99842.03
2022-07-25T11:33:40.817Z,99842.63
2022-07-25T11:36:10.776Z,99838.06
2022-07-25T11:38:39.038Z,99829.63
2022-07-25T11:41:06.627Z,99833.09
2022-07-25T11:43:33.894Z,99826.53
2022-07-25T11:46:08.355Z,99826.47
2022-07-25T11:48:39.195Z,99823.63
2022-07-25T11:51:18.650Z,99810.75
2022-07-25T11:53:49.758Z,99814.09
2022-07-25T11:56:41.303Z,99806.59
2022-07-25T11:59:08.140Z,99797.88
2022-07-25T12:01:40.760Z,99787.44
2022-07-25T12:04:17.292Z,99795.50
2022-07-25T12:06:45.757Z,99790.31
2022-07-25T12:09:19.162Z,99786.75
2022-07-25T12:11:48.474Z,99779.81
2022-07-25T12:14:16.338Z,99775.91
2022-07-25T12:16:43.599Z,99767.56
2022-07-25T12:19:19.425Z,99759.47
2022-07-25T12:21:46.846Z,99758.47
2022-07-25T12:24:14.454Z,99755.34
2022-07-25T12:26:41.648Z,99753.88
2022-07-25T12:29:09.397Z,99747.41
2022-07-25T12:31:36.645Z,99745.41
2022-07-25T12:34:03.714Z,99739.38
2022-07-25T12:36:31.120Z,99742.38
2022-07-25T12:38:58.535Z,99727.06
2022-07-25T12:41:25.518Z,99731.75
2022-07-25T12:43:52.726Z,99722.63
2022-07-25T12:46:19.909Z,99710.41
2022-07-25T12:48:47.309Z,99717.00
2022-07-25T12:51:14.637Z,99713.66
2022-07-25T12:53:42.603Z,99709.22
2022-07-25T12:56:09.870Z,99694.72
2022-07-25T12:58:37.694Z,99692.84
2022-07-25T13:01:08.435Z,99702.50
2022-07-25T13:03:35.460Z,99694.91
2022-07-25T13:06:02.949Z,99689.91
2022-07-25T13:08:29.952Z,99686.13
2022-07-25T13:10:58.208Z,99688.56
2022-07-25T13:13:25.573Z,99689.03
2022-07-25T13:15:54.329Z,99680.28
2022-07-25T13:18:21.427Z,99672.28
2022-07-25T13:20:48.681Z,99666.66
2022-07-25T13:23:20.513Z,99661.03
2022-07-25T13:25:48.103Z,99653.38
2022-07-25T13:28:15.086Z,99649.22
2022-07-25T13:30:42.748Z,99648.81
2022-07-25T13:33:12.695Z,99642.66
2022-07-25T13:35:39.993Z,99643.44
2022-07-25T13:38:11.674Z,99647.25
2022-07-25T13:40:43.290Z,99636.41
2022-07-25T13:43:11.241Z,99631.91
2022-07-25T13:45:38.728Z,99625.44
2022-07-25T13:48:28.460Z,99620.47
2022-07-25T13:50:53.932Z,99625.19
2022-07-25T13:53:22.294Z,99620.19
2022-07-25T13:55:51.738Z,99615.19
2022-07-25T13:58:18.683Z,99614.47
2022-07-25T14:00:46.118Z,99612.50
2022-07-25T14:03:13.101Z,99612.19
2022-07-25T14:05:40.419Z,99608.69
2022-07-25T14:08:08.398Z,99599.88
2022-07-25T14:10:35.911Z,99602.56
2022-07-25T14:13:03.066Z,99600.66
2022-07-25T14:15:31.421Z,99589.53
2022-07-25T14:18:01.706Z,99587.56
2022-07-25T14:20:29.021Z,99582.19
2022-07-25T14:22:56.311Z,99586.06
2022-07-25T14:25:23.270Z,99575.31
2022-07-25T14:27:50.332Z,99568.09
2022-07-25T14:30:17.756Z,99564.69
2022-07-25T14:32:45.064Z,99572.44
2022-07-25T14:35:12.236Z,99575.53
2022-07-25T14:37:39.727Z,99563.22
2022-07-25T14:40:07.564Z,99560.13
2022-07-25T14:42:34.474Z,99565.91
2022-07-25T14:45:02.093Z,99559.41
2022-07-25T14:47:30.529Z,99552.50
2022-07-25T14:49:57.863Z,99552.50
2022-07-25T14:52:25.197Z,99550.19
2022-07-25T14:54:52.082Z,99540.66
2022-07-25T14:57:19.105Z,99544.91
2022-07-25T14:59:46.554Z,99540.66
2022-07-25T15:02:13.561Z,99548.38
2022-07-25T15:04:40.672Z,99544.53
2022-07-25T15:07:07.988Z,99534.94
2022-07-25T15:09:34.970Z,99529.19
2022-07-25T15:12:01.965Z,99525.00
2022-07-25T15:14:30.553Z,99522.31
2022-07-25T15:16:57.571Z,99519.63
2022-07-25T15:19:25.898Z,99510.03
2022-07-25T15:21:53.781Z,99514.66
2022-07-25T15:24:23.517Z,99508.94
2022-07-25T15:26:53.002Z,99508.91
2022-07-25T15:29:20.834Z,99501.22
2022-07-25T15:31:49.026Z,99505.06
2022-07-25T15:34:16.456Z,99505.09
2022-07-25T15:36:43.440Z,99496.31
2022-07-25T15:39:10.863Z,99502.06
2022-07-25T15:41:38.502Z,99496.69
2022-07-25T15:44:05.628Z,99492.84
2022-07-25T15:46:33.020Z,99488.56
2022-07-25T15:49:00.781Z,99489.34
2022-07-25T15:51:27.870Z,99478.22
2022-07-25T15:53:54.884Z,99481.25
2022-07-25T15:56:23.280Z,99477.81
2022-07-25T15:58:50.383Z,99473.97
2022-07-25T16:01:17.436Z,99477.81
2022-07-25T16:03:46.960Z,99477.38
2022-07-25T16:06:18.844Z,99477.00
2022-07-25T16:08:47.614Z,99465.84
2022-07-25T16:11:48.263Z,99468.84
2022-07-25T16:14:18.079Z,99461.94
2022-07-25T16:16:45.163Z,99463.50
2022-07-25T16:19:12.288Z,99463.44
2022-07-25T16:21:40.088Z,99475.34
2022-07-25T16:24:11.481Z,99466.50
2022-07-25T16:26:41.368Z,99469.19
2022-07-25T16:29:08.974Z,99461.47
2022-07-25T16:31:36.151Z,99458.78
2022-07-25T16:34:03.476Z,99461.84
2022-07-25T16:36:30.689Z,99458.78
2022-07-25T16:38:57.989Z,99459.50
2022-07-25T16:41:25.287Z,99451.75
2022-07-25T16:43:52.307Z,99452.50
2022-07-25T16:46:19.847Z,99451.31
2022-07-25T16:48:47.476Z,99446.34
2022-07-25T16:51:14.853Z,99448.16
2022-07-25T16:53:41.862Z,99454.66
2022-07-25T16:56:09.238Z,99447.38
2022-07-25T16:58:36.337Z,99446.94
2022-07-25T17:01:03.472Z,99443.06
2022-07-25T17:03:30.797Z,99448.41
2022-07-25T17:05:58.036Z,99441.47
2022-07-25T17:08:26.426Z,99443.38
2022-07-25T17:10:55.490Z,99449.88
2022-07-25T17:13:22.629Z,99436.03
2022-07-25T17:15:49.746Z,99434.06
2022-07-25T17:18:17.692Z,99439.03
2022-07-25T17:20:44.636Z,99433.25
2022-07-25T17:23:11.848Z,99433.53
2022-07-25T17:25:41.205Z,99428.16
2022-07-25T17:28:09.060Z,99435.03
2022-07-25T17:30:36.079Z,99434.19
2022-07-25T17:33:04.004Z,99431.88
2022-07-25T17:35:31.759Z,99428.00
2022-07-25T17:37:58.805Z,99434.09
2022-07-25T17:40:26.342Z,99432.13
2022-07-25T17:42:53.337Z,99430.94
2022-07-25T17:45:20.334Z,99430.47
2022-07-25T17:47:47.962Z,99433.84
2022-07-25T17:50:16.978Z,99426.13
2022-07-25T17:52:45.165Z,99421.06
2022-07-25T17:55:13.647Z,99429.84
2022-07-25T17:57:43.157Z,99418.28
2022-07-25T18:00:12.042Z,99421.25
2022-07-25T18:02:42.775Z,99415.78
2022-07-25T18:05:10.046Z,99412.69
2022-07-25T18:07:39.272Z,99414.13
2022-07-25T18:10:07.468Z,99412.88
2022-07-25T18:12:34.562Z,99405.91
2022-07-25T18:15:02.631Z,99410.78
2022-07-25T18:17:30.604Z,99410.66
2022-07-25T18:19:57.771Z,99396.03
2022-07-25T18:22:24.790Z,99400.53
2022-07-25T18:24:52.073Z,99406.53
2022-07-25T18:27:19.248Z,99407.25
2022-07-25T18:29:47.057Z,99404.06
2022-07-25T18:32:14.669Z,99403.53
2022-07-25T18:34:41.605Z,99403.81
2022-07-25T18:37:08.570Z,99394.13
2022-07-25T18:39:35.965Z,99405.94
2022-07-25T18:42:03.083Z,99401.28
2022-07-25T18:44:30.337Z,99402.34
2022-07-25T18:46:58.453Z,99407.22
2022-07-25T18:49:27.179Z,99395.63
2022-07-25T18:51:54.355Z,99400.50
2022-07-25T18:54:21.752Z,99395.75
2022-07-25T18:56:49.096Z,99400.28
2022-07-25T18:59:16.406Z,99402.84
2022-07-25T19:01:44.495Z,99402.00
2022-07-25T19:04:12.400Z,99403.47
2022-07-25T19:06:40.428Z,99403.75
2022-07-25T19:09:10.030Z,99408.28
2022-07-25T19:11:42.212Z,99404.75
2022-07-25T19:14:14.174Z,99414.56
2022-07-25T19:16:41.512Z,99411.47
2022-07-25T19:19:09.955Z,99419.75
2022-07-25T19:21:38.346Z,99409.75
2022-07-25T19:24:06.223Z,99414.59
2022-07-25T19:26:33.914Z,99422.16
2022-07-25T19:29:00.958Z,99422.41
2022-07-25T19:31:29.420Z,99423.38
2022-07-25T19:33:59.688Z,99427.53
2022-07-25T19:36:26.661Z,99424.00
2022-07-25T19:38:53.680Z,99431.13
2022-07-25T19:41:20.992Z,99422.63
2022-07-25T19:43:48.011Z,99430.44
2022-07-25T19:46:15.219Z,99428.91
2022-07-25T19:48:44.218Z,99427.59
2022-07-25T19:51:12.298Z,99431.28
2022-07-25T19:53:39.324Z,99435.00
2022-07-25T19:56:09.303Z,99429.13
2022-07-25T19:58:41.135Z,99426.38
2022-07-25T20:01:11.673Z,99423.94
2022-07-25T20:03:39.051Z,99419.97
2022-07-25T20:06:09.769Z,99419.44
2022-07-25T20:08:39.850Z,99423.91
2022-07-25T20:11:07.985Z,99417.22
2022-07-25T20:13:36.925Z,99414.16
2022-07-25T20:16:04.988Z,99410.16
2022-07-25T20:18:35.125Z,99402.41
2022-07-25T20:21:04.793Z,99408.44
2022-07-25T20:23:32.378Z,99400.63
2022-07-25T20:26:01.239Z,99393.75
2022-07-25T20:28:28.924Z,99394.44
2022-07-25T20:30:57.425Z,99390.44
2022-07-25T20:33:27.288Z,99401.34
2022-07-25T20:35:55.764Z,99384.00
2022-07-25T20:38:28.745Z,99399.81
2022-07-25T20:40:59.016Z,99394.72
2022-07-25T20:43:27.276Z,99392.28
2022-07-25T20:45:57.998Z,99400.94
2022-07-25T20:48:25.117Z,99394.75
2022-07-25T20:50:52.850Z,99394.53
2022-07-25T20:53:19.885Z,99394.09
2022-07-25T20:55:48.283Z,99394.09
2022-07-25T20:58:15.939Z,99386.78
2022-07-25T21:00:43.122Z,99385.88
2022-07-25T21:03:11.737Z,99393.44
2022-07-25T21:05:39.672Z,99400.19
2022-07-25T21:08:07.451Z,99406.09
2022-07-25T21:10:34.756Z,99399.19
2022-07-25T21:13:02.190Z,99397.22
2022-07-25T21:15:30.926Z,99394.88
2022-07-25T21:17:58.182Z,99400.09
2022-07-25T21:20:25.463Z,99404.28
2022-07-25T21:22:55.563Z,99396.66
2022-07-25T21:25:22.765Z,99391.44
2022-07-25T21:27:50.223Z,99388.78
2022-07-25T21:30:17.271Z,99385.22
2022-07-25T21:32:45.051Z,99395.66
2022-07-25T21:35:13.051Z,99390.78
2022-07-25T21:37:41.999Z,99391.63
2022-07-25T21:40:10.587Z,99382.44
2022-07-25T21:42:38.456Z,99387.75
2022-07-25T21:45:07.262Z,99385.44
2022-07-25T21:47:37.451Z,99386.19
2022-07-25T21:50:24.811Z,99386.56
2022-07-25T21:52:52.634Z,99388.44
2022-07-25T21:55:21.776Z,99385.44
2022-07-25T21:57:51.288Z,99384.56
2022-07-25T22:00:19.425Z,99382.53
2022-07-25T22:03:02.030Z,99384.22
2022-07-25T22:05:29.042Z,99379.19
2022-07-25T22:07:56.293Z,99380.31
2022-07-25T22:10:23.332Z,99380.97
2022-07-25T22:12:50.409Z,99382.53
2022-07-25T22:15:17.830Z,99381.75
2022-07-25T22:17:49.623Z,99385.53
2022-07-25T22:20:20.681Z,99392.81
2022-07-25T22:22:48.684Z,99390.84
2022-07-25T22:25:16.805Z,99388.03
2022-07-25T22:27:44.733Z,99396.38
2022-07-25T22:30:18.185Z,99399.38
2022-07-25T22:32:48.888Z,99402.25
2022-07-25T22:35:16.265Z,99406.66
2022-07-25T22:37:44.218Z,99402.69
2022-07-25T22:40:12.093Z,99410.53
2022-07-25T22:42:39.112Z,99414.63
2022-07-25T22:45:06.807Z,99408.88
2022-07-25T22:47:35.506Z,99398.44
2022-07-25T22:50:05.469Z,99399.22
2022-07-25T22:52:32.483Z,99400.00
2022-07-25T22:54:59.798Z,99401.09
2022-07-25T22:57:27.404Z,99397.63
2022-07-25T22:59:54.387Z,99402.19
2022-07-25T23:02:21.708Z,99392.63
2022-07-25T23:04:48.743Z,99387.53
2022-07-25T23:07:15.697Z,99384.75
2022-07-25T23:09:43.683Z,99384.19
2022-07-25T23:12:11.671Z,99386.38
2022-07-25T23:14:38.733Z,99381.41
2022-07-25T23:17:18.061Z,99377.03
2022-07-25T23:19:49.288Z,99382.75
2022-07-25T23:22:20.744Z,99368.09
2022-07-25T23:24:48.452Z,99371.41
2022-07-25T23:27:15.754Z,99375.19
2022-07-25T23:29:43.180Z,99376.03
2022-07-25T23:32:10.213Z,99373.56
2022-07-25T23:34:37.477Z,99371.56
2022-07-25T23:37:05.144Z,99366.19
2022-07-25T23:39:33.784Z,99359.81
2022-07-25T23:42:01.565Z,99360.97
2022-07-25T23:44:29.043Z,99358.69
2022-07-25T23:46:57.005Z,99357.75
2022-07-25T23:49:24.517Z,99358.59
2022-07-25T23:51:52.174Z,99350.66
2022-07-25T23:54:19.706Z,99346.75
2022-07-25T23:56:47.057Z,99355.38
2022-07-25T23:59:17.966Z,99350.69
